My webcam more information My webcam


Visit other weathersites:

Galway City Weather

Moycullen Weather

Waterford City Weather

Charlestown Weather

Clevedon Weather



Weather Underground History page Text

Daily Summary for September 22, 2017 Units:  Metric    English   Both
« Previous Day
Next Day »
Daily Weekly Monthly Yearly Custom
  Current: High: Low: Average:
Temperature: 11.7 °C 14.9 °C 11.4 °C 13.2 °C
Dew Point: 9.7 °C 13.3 °C 9.7 °C 11 °C
Humidity: 88 % 97 % 72 % 87 %
Wind Speed: 4.8 km/h 24.0 km/h 1.4 km/h 9.3 km/h
Wind Gust: 11.3 km/h 57.4 km/h - -
Wind:NW - - SE
Pressure: 1010.0 hPa 1010.4 hPa 999.9 hPa -
Precipitation: 14.5 mm      
Historical Graphs
 
 
Tabular Data for September 22, 2017
Time Temperature Dew Point Pressure Wind Wind Speed Wind Gust Humidity Rainfall Rate (Hourly)
00:04 12.2 °C 10.8 °C 1008.0 hPa NNE 10.1 km/h 22.5 km/h 91 % 0.0 mm
00:09 12.3 °C 10.8 °C 1008.0 hPa North 15.1 km/h 24.1 km/h 91 % 0.0 mm
00:14 12.3 °C 10.7 °C 1007.7 hPa NE 10.8 km/h 25.9 km/h 90 % 0.0 mm
00:19 12.3 °C 10.7 °C 1007.7 hPa NNE 7.7 km/h 17.7 km/h 90 % 0.0 mm
00:24 12.3 °C 10.7 °C 1007.7 hPa NNE 10.5 km/h 25.9 km/h 90 % 0.0 mm
00:29 12.3 °C 10.7 °C 1007.7 hPa NNW 6.0 km/h 14.5 km/h 90 % 0.0 mm
00:34 12.2 °C 10.8 °C 1007.7 hPa West 13.2 km/h 20.9 km/h 91 % 0.0 mm
00:39 12.2 °C 10.7 °C 1007.7 hPa NNE 7.4 km/h 14.8 km/h 91 % 0.0 mm
00:44 12.1 °C 10.8 °C 1007.7 hPa NNE 9.7 km/h 18.5 km/h 92 % 0.0 mm
00:49 12.1 °C 10.8 °C 1007.7 hPa North 10.5 km/h 18.5 km/h 92 % 0.0 mm
00:54 12.1 °C 10.8 °C 1007.7 hPa NNW 14.5 km/h 24.1 km/h 92 % 0.0 mm
01:05 11.9 °C 10.4 °C 1007.7 hPa East 14.0 km/h 20.9 km/h 91 % 0.0 mm
01:10 11.8 °C 10.4 °C 1007.3 hPa ENE 10.3 km/h 22.2 km/h 91 % 0.0 mm
01:15 11.8 °C 10.3 °C 1007.3 hPa North 15.6 km/h 27.8 km/h 91 % 0.0 mm
01:20 11.8 °C 10.3 °C 1007.3 hPa NW 10.9 km/h 20.9 km/h 91 % 0.0 mm
01:25 11.8 °C 10.3 °C 1007.0 hPa NNE 14.6 km/h 20.9 km/h 91 % 0.0 mm
01:30 11.8 °C 10.4 °C 1007.0 hPa NNW 10.5 km/h 17.7 km/h 91 % 0.0 mm
01:35 11.9 °C 10.4 °C 1007.0 hPa WNW 15.3 km/h 22.5 km/h 91 % 0.0 mm
01:40 11.9 °C 10.3 °C 1007.0 hPa NW 18.0 km/h 33.3 km/h 90 % 0.3 mm
01:45 11.9 °C 10.3 °C 1006.7 hPa North 11.6 km/h 22.5 km/h 90 % 0.3 mm
01:50 11.8 °C 10.2 °C 1006.7 hPa NNW 10.6 km/h 20.9 km/h 90 % 0.3 mm
01:55 11.8 °C 10.2 °C 1006.7 hPa NNW 13.2 km/h 22.5 km/h 90 % 0.3 mm
02:00 11.8 °C 10.2 °C 1006.7 hPa North 19.8 km/h 35.4 km/h 90 % 0.3 mm
02:05 11.7 °C 10.1 °C 1006.3 hPa NE 10.3 km/h 19.3 km/h 90 % 0.5 mm
02:10 11.6 °C 10.1 °C 1006.3 hPa NNE 12.9 km/h 29.6 km/h 91 % 0.5 mm
02:15 11.5 °C 10.2 °C 1006.3 hPa NNW 12.9 km/h 22.5 km/h 92 % 0.8 mm
02:20 11.6 °C 10.3 °C 1006.0 hPa NNW 16.4 km/h 35.2 km/h 92 % 1.0 mm
02:26 11.6 °C 10.1 °C 1005.6 hPa NNE 9.3 km/h 27.8 km/h 91 % 1.0 mm
02:31 11.6 °C 10.1 °C 1005.6 hPa North 18.2 km/h 32.2 km/h 91 % 1.3 mm
02:36 11.6 °C 10.1 °C 1005.3 hPa North 12.2 km/h 22.2 km/h 91 % 1.3 mm
02:41 11.6 °C 10.1 °C 1005.3 hPa NNW 16.6 km/h 27.4 km/h 91 % 1.3 mm
02:46 11.6 °C 10.1 °C 1005.0 hPa NNW 15.6 km/h 22.5 km/h 91 % 1.5 mm
02:51 11.6 °C 10.2 °C 1005.3 hPa NW 24.0 km/h 33.8 km/h 91 % 1.8 mm
02:56 11.6 °C 10.2 °C 1005.0 hPa NW 17.5 km/h 33.8 km/h 91 % 2.3 mm
03:01 11.6 °C 10.1 °C 1005.0 hPa North 11.1 km/h 30.6 km/h 91 % 2.3 mm
03:06 11.4 °C 10.2 °C 1004.6 hPa North 20.6 km/h 40.2 km/h 92 % 2.3 mm
03:11 11.6 °C 10.3 °C 1004.6 hPa NNW 20.6 km/h 32.2 km/h 92 % 2.3 mm
03:16 11.6 °C 10.3 °C 1004.6 hPa NW 15.3 km/h 29.6 km/h 92 % 2.0 mm
03:21 11.6 °C 10.3 °C 1004.6 hPa NE 19.1 km/h 31.5 km/h 92 % 1.8 mm
03:26 11.6 °C 10.3 °C 1004.3 hPa NNW 15.4 km/h 29.6 km/h 92 % 1.8 mm
03:31 11.6 °C 10.3 °C 1004.3 hPa NW 15.0 km/h 27.8 km/h 92 % 2.0 mm
03:36 11.5 °C 10.2 °C 1003.9 hPa North 11.1 km/h 19.3 km/h 92 % 2.3 mm
03:41 11.5 °C 10.4 °C 1003.6 hPa NNW 8.4 km/h 20.4 km/h 93 % 2.3 mm
03:46 11.5 °C 10.4 °C 1003.3 hPa North 14.6 km/h 25.7 km/h 93 % 3.0 mm
03:52 11.7 °C 10.6 °C 1002.9 hPa West 14.3 km/h 24.1 km/h 93 % 3.0 mm
03:57 11.7 °C 10.4 °C 1002.6 hPa NW 15.1 km/h 57.4 km/h 92 % 2.8 mm
04:02 11.8 °C 10.4 °C 1002.3 hPa NW 18.8 km/h 37.0 km/h 91 % 2.8 mm
04:07 11.9 °C 10.4 °C 1002.3 hPa North 14.8 km/h 35.4 km/h 91 % 2.8 mm
04:12 11.9 °C 10.4 °C 1002.3 hPa NNW 14.6 km/h 30.6 km/h 91 % 2.8 mm
04:17 11.9 °C 10.3 °C 1001.9 hPa NNW 19.6 km/h 40.7 km/h 90 % 3.0 mm
04:22 11.9 °C 10.5 °C 1001.9 hPa NNE 22.8 km/h 37.0 km/h 91 % 3.0 mm
04:27 11.9 °C 10.5 °C 1001.6 hPa NNW 23.5 km/h 40.2 km/h 91 % 3.3 mm
04:32 11.9 °C 10.5 °C 1001.6 hPa NW 15.8 km/h 32.2 km/h 91 % 3.3 mm
04:37 11.9 °C 10.5 °C 1001.6 hPa NW 18.5 km/h 38.9 km/h 91 % 3.3 mm
04:42 12.1 °C 10.6 °C 1001.2 hPa NW 20.4 km/h 35.4 km/h 91 % 2.5 mm
04:47 12.0 °C 10.6 °C 1000.9 hPa ENE 18.5 km/h 33.8 km/h 91 % 2.3 mm
04:52 12.0 °C 10.7 °C 1000.9 hPa NNW 18.5 km/h 32.2 km/h 92 % 2.3 mm
04:57 12.0 °C 10.7 °C 1000.6 hPa NNW 16.1 km/h 24.1 km/h 92 % 2.3 mm
05:02 12.0 °C 10.9 °C 1000.2 hPa ENE 22.2 km/h 35.4 km/h 93 % 2.0 mm
05:07 12.2 °C 10.9 °C 1000.2 hPa NW 20.0 km/h 42.6 km/h 92 % 1.8 mm
05:12 12.2 °C 10.9 °C 1000.2 hPa NW 16.3 km/h 31.5 km/h 92 % 1.8 mm
05:17 12.2 °C 11.1 °C 1000.2 hPa NW 17.9 km/h 32.2 km/h 93 % 1.8 mm
05:23 12.2 °C 11.1 °C 1000.2 hPa NW 21.9 km/h 41.8 km/h 93 % 2.0 mm
05:28 12.2 °C 11.1 °C 1000.2 hPa WNW 17.2 km/h 32.2 km/h 93 % 2.3 mm
05:33 12.3 °C 11.3 °C 999.9 hPa West 17.9 km/h 35.4 km/h 94 % 2.8 mm
05:38 12.3 °C 11.3 °C 1000.2 hPa North 19.0 km/h 42.6 km/h 94 % 3.3 mm
05:43 12.2 °C 11.3 °C 1000.2 hPa NE 14.6 km/h 35.4 km/h 94 % 5.8 mm
05:48 12.2 °C 11.4 °C 1000.6 hPa NW 22.4 km/h 44.4 km/h 95 % 5.8 mm
05:53 12.2 °C 11.4 °C 1000.2 hPa ENE 9.7 km/h 25.9 km/h 95 % 6.1 mm
05:58 12.3 °C 11.5 °C 1000.2 hPa North 14.5 km/h 31.5 km/h 95 % 6.1 mm
06:03 12.4 °C 11.8 °C 999.9 hPa NNE 13.0 km/h 29.0 km/h 96 % 6.1 mm
06:08 12.7 °C 12.1 °C 999.9 hPa NE 13.8 km/h 27.4 km/h 96 % 6.1 mm
06:13 13.1 °C 12.6 °C 999.9 hPa NE 8.5 km/h 19.3 km/h 97 % 6.1 mm
06:18 13.4 °C 13.0 °C 1000.2 hPa ENE 13.0 km/h 19.3 km/h 97 % 5.8 mm
06:23 13.7 °C 13.2 °C 1000.2 hPa East 13.0 km/h 20.9 km/h 97 % 5.3 mm
06:28 13.7 °C 13.3 °C 1000.2 hPa NE 8.4 km/h 19.3 km/h 97 % 5.1 mm
06:33 13.7 °C 13.3 °C 1000.2 hPa NE 12.2 km/h 20.9 km/h 97 % 4.3 mm
06:38 13.7 °C 13.3 °C 1000.2 hPa ENE 12.2 km/h 22.2 km/h 97 % 3.8 mm
06:43 13.7 °C 13.3 °C 1000.2 hPa NNE 11.6 km/h 19.3 km/h 97 % 1.5 mm
06:49 13.8 °C 13.3 °C 999.9 hPa West 12.6 km/h 22.5 km/h 97 % 1.3 mm
06:54 13.8 °C 13.3 °C 999.9 hPa East 7.7 km/h 14.8 km/h 97 % 1.3 mm
06:59 13.7 °C 13.3 °C 999.9 hPa NE 11.9 km/h 19.3 km/h 97 % 0.8 mm
07:04 13.7 °C 13.3 °C 999.9 hPa NE 14.5 km/h 29.0 km/h 97 % 0.8 mm
07:09 13.6 °C 13.2 °C 1000.2 hPa ENE 12.9 km/h 20.9 km/h 97 % 1.0 mm
07:14 13.6 °C 12.9 °C 1000.2 hPa ESE 12.6 km/h 20.9 km/h 96 % 1.0 mm
07:19 13.4 °C 12.8 °C 1000.2 hPa East 15.3 km/h 24.1 km/h 96 % 1.0 mm
07:24 13.4 °C 12.8 °C 1000.2 hPa ENE 12.4 km/h 29.6 km/h 96 % 1.0 mm
07:29 13.4 °C 12.8 °C 1000.6 hPa ENE 11.7 km/h 24.1 km/h 96 % 1.0 mm
07:34 13.4 °C 12.8 °C 1000.6 hPa ENE 9.3 km/h 20.4 km/h 96 % 0.8 mm
07:39 13.4 °C 12.9 °C 1000.6 hPa ENE 12.2 km/h 18.5 km/h 97 % 0.5 mm
07:44 13.4 °C 12.9 °C 1000.6 hPa East 6.8 km/h 14.8 km/h 97 % 0.8 mm
07:49 13.4 °C 12.9 °C 1000.9 hPa East 7.2 km/h 9.7 km/h 97 % 0.5 mm
07:54 13.3 °C 12.8 °C 1000.9 hPa ENE 6.8 km/h 13.0 km/h 97 % 0.5 mm
07:59 13.2 °C 12.6 °C 1001.2 hPa East 8.8 km/h 16.7 km/h 96 % 0.5 mm
08:04 12.9 °C 12.3 °C 1001.2 hPa East 5.8 km/h 9.7 km/h 96 % 0.3 mm
08:09 12.7 °C 12.1 °C 1001.6 hPa East 5.3 km/h 9.7 km/h 96 % 0.3 mm
08:15 12.4 °C 11.8 °C 1001.9 hPa NE 4.8 km/h 11.3 km/h 96 % 0.3 mm
08:20 12.2 °C 11.6 °C 1001.9 hPa East 4.7 km/h 11.1 km/h 96 % 0.3 mm
08:25 12.2 °C 11.6 °C 1001.9 hPa East 3.1 km/h 6.4 km/h 96 % 0.3 mm
08:30 12.3 °C 11.7 °C 1001.9 hPa ENE 4.2 km/h 8.0 km/h 96 % 0.3 mm
08:35 12.6 °C 11.9 °C 1002.3 hPa East 3.4 km/h 8.0 km/h 96 % 0.3 mm
08:40 12.7 °C 12.1 °C 1002.6 hPa SE 3.4 km/h 9.7 km/h 96 % 0.3 mm
08:50 12.7 °C 12.1 °C 1002.9 hPa East 2.3 km/h 9.3 km/h 96 % 0.0 mm
08:55 12.7 °C 12.1 °C 1002.9 hPa East 3.4 km/h 6.4 km/h 96 % 0.0 mm
09:00 12.8 °C 12.2 °C 1003.3 hPa WSW 5.6 km/h 16.7 km/h 96 % 0.0 mm
09:05 12.7 °C 11.9 °C 1003.3 hPa ESE 3.4 km/h 9.7 km/h 95 % 0.0 mm
09:10 12.4 °C 11.7 °C 1003.6 hPa East 3.9 km/h 9.7 km/h 95 % 0.0 mm
09:15 12.4 °C 11.6 °C 1003.6 hPa SE 2.7 km/h 11.3 km/h 95 % 0.0 mm
09:20 12.4 °C 11.8 °C 1003.9 hPa ESE 1.4 km/h 3.7 km/h 96 % 0.0 mm
09:25 12.6 °C 11.9 °C 1004.3 hPa East 3.1 km/h 8.0 km/h 96 % 0.0 mm
09:30 12.8 °C 12.0 °C 1004.6 hPa East 4.8 km/h 14.5 km/h 95 % 0.0 mm
09:35 12.9 °C 12.2 °C 1004.6 hPa East 4.0 km/h 11.1 km/h 95 % 0.0 mm
09:40 13.1 °C 12.3 °C 1005.0 hPa ESE 3.7 km/h 11.3 km/h 95 % 0.0 mm
09:46 13.4 °C 12.6 °C 1005.0 hPa SE 4.7 km/h 9.3 km/h 95 % 0.0 mm
09:51 13.6 °C 12.6 °C 1005.0 hPa West 4.0 km/h 13.0 km/h 94 % 0.0 mm
09:56 13.5 °C 12.4 °C 1005.3 hPa ENE 2.7 km/h 5.6 km/h 93 % 0.0 mm
10:01 13.6 °C 12.5 °C 1005.3 hPa East 8.5 km/h 14.8 km/h 93 % 0.0 mm
10:06 13.5 °C 12.4 °C 1005.6 hPa East 4.7 km/h 13.0 km/h 93 % 0.0 mm
10:11 13.7 °C 12.6 °C 1005.6 hPa ESE 8.4 km/h 17.7 km/h 93 % 0.0 mm
10:16 13.7 °C 12.4 °C 1005.6 hPa ESE 2.3 km/h 8.0 km/h 92 % 0.0 mm
10:21 13.5 °C 12.1 °C 1005.6 hPa East 4.8 km/h 11.3 km/h 91 % 0.0 mm
10:26 13.5 °C 12.2 °C 1006.0 hPa East 4.8 km/h 8.0 km/h 92 % 0.0 mm
10:31 13.8 °C 12.3 °C 1006.0 hPa ESE 4.2 km/h 14.8 km/h 91 % 0.0 mm
10:36 14.0 °C 12.6 °C 1006.3 hPa ENE 2.9 km/h 6.4 km/h 91 % 0.0 mm
10:41 14.1 °C 12.4 °C 1006.3 hPa East 3.9 km/h 9.7 km/h 90 % 0.0 mm
10:46 13.9 °C 12.3 °C 1006.7 hPa ESE 4.8 km/h 9.7 km/h 90 % 0.0 mm
10:51 13.8 °C 11.8 °C 1006.7 hPa East 4.0 km/h 8.0 km/h 88 % 0.0 mm
10:56 13.8 °C 12.1 °C 1006.7 hPa East 4.7 km/h 11.1 km/h 89 % 0.0 mm
11:01 14.0 °C 12.2 °C 1007.0 hPa SE 3.9 km/h 16.7 km/h 89 % 0.0 mm
11:07 14.2 °C 12.4 °C 1007.0 hPa ESE 3.2 km/h 5.6 km/h 89 % 0.0 mm
11:12 14.4 °C 12.3 °C 1007.0 hPa ENE 4.0 km/h 9.7 km/h 87 % 0.0 mm
11:17 14.4 °C 12.3 °C 1007.0 hPa SE 5.8 km/h 11.3 km/h 87 % 0.0 mm
11:22 14.4 °C 11.9 °C 1007.0 hPa East 9.3 km/h 13.0 km/h 85 % 0.0 mm
11:27 14.6 °C 12.2 °C 1007.3 hPa East 4.0 km/h 13.0 km/h 86 % 0.0 mm
11:31 14.8 °C 12.7 °C 1007.3 hPa ESE 3.9 km/h 5.6 km/h 87 % 0.0 mm
11:36 14.7 °C 12.0 °C 1007.7 hPa ENE 7.1 km/h 17.7 km/h 84 % 0.0 mm
11:41 13.9 °C 11.4 °C 1007.7 hPa East 6.4 km/h 13.0 km/h 85 % 0.0 mm
11:46 14.0 °C 11.9 °C 1007.7 hPa East 4.3 km/h 9.7 km/h 87 % 0.0 mm
11:51 14.1 °C 11.6 °C 1007.7 hPa East 7.9 km/h 18.5 km/h 85 % 0.0 mm
11:56 14.2 °C 11.7 °C 1007.7 hPa ESE 7.4 km/h 14.8 km/h 85 % 0.0 mm
12:01 14.2 °C 11.7 °C 1007.7 hPa ESE 5.8 km/h 9.3 km/h 85 % 0.0 mm
12:06 14.7 °C 12.1 °C 1007.7 hPa East 7.6 km/h 16.1 km/h 84 % 0.0 mm
12:11 14.7 °C 11.5 °C 1008.0 hPa East 7.2 km/h 14.5 km/h 81 % 0.0 mm
12:16 14.2 °C 11.4 °C 1008.0 hPa East 4.5 km/h 9.3 km/h 83 % 0.0 mm
12:21 13.9 °C 10.9 °C 1008.0 hPa ESE 11.6 km/h 18.5 km/h 82 % 0.0 mm
12:26 13.8 °C 10.9 °C 1008.0 hPa East 10.1 km/h 18.5 km/h 83 % 0.0 mm
12:33 13.8 °C 11.3 °C 1008.0 hPa ESE 7.4 km/h 11.3 km/h 85 % 0.0 mm
12:38 14.1 °C 11.3 °C 1008.4 hPa ESE 10.1 km/h 18.5 km/h 83 % 0.0 mm
12:43 14.2 °C 11.1 °C 1008.4 hPa NE 14.3 km/h 20.9 km/h 82 % 0.0 mm
12:48 14.3 °C 10.9 °C 1008.4 hPa ENE 11.9 km/h 19.3 km/h 80 % 0.0 mm
12:53 14.3 °C 10.9 °C 1008.7 hPa NE 9.3 km/h 22.2 km/h 80 % 0.0 mm
12:58 14.4 °C 10.6 °C 1008.7 hPa ENE 12.4 km/h 19.3 km/h 78 % 0.0 mm
13:03 14.8 °C 11.3 °C 1008.7 hPa ENE 7.9 km/h 14.5 km/h 80 % 0.0 mm
13:08 14.4 °C 10.4 °C 1009.0 hPa ENE 10.0 km/h 14.8 km/h 77 % 0.0 mm
13:13 14.0 °C 10.4 °C 1009.0 hPa ESE 10.3 km/h 16.7 km/h 79 % 0.0 mm
13:18 13.8 °C 10.6 °C 1009.0 hPa East 8.4 km/h 16.7 km/h 81 % 0.0 mm
13:23 13.8 °C 10.8 °C 1009.0 hPa ENE 9.5 km/h 16.7 km/h 82 % 0.0 mm
13:28 13.9 °C 10.9 °C 1009.4 hPa East 9.0 km/h 14.5 km/h 82 % 0.0 mm
13:33 13.7 °C 10.9 °C 1009.0 hPa East 5.5 km/h 13.0 km/h 83 % 0.0 mm
13:38 14.1 °C 11.1 °C 1009.4 hPa East 9.2 km/h 19.3 km/h 82 % 0.0 mm
13:43 14.1 °C 10.9 °C 1009.4 hPa ESE 5.6 km/h 11.3 km/h 81 % 0.0 mm
13:48 14.1 °C 10.4 °C 1009.4 hPa ESE 9.7 km/h 16.7 km/h 79 % 0.0 mm
13:53 13.9 °C 10.3 °C 1009.4 hPa ENE 8.7 km/h 16.1 km/h 79 % 0.0 mm
13:59 13.9 °C 10.7 °C 1009.7 hPa East 8.2 km/h 14.8 km/h 81 % 0.0 mm
14:04 14.2 °C 10.8 °C 1009.7 hPa East 7.9 km/h 12.9 km/h 80 % 0.0 mm
14:09 14.2 °C 10.6 °C 1009.7 hPa East 10.0 km/h 16.7 km/h 79 % 0.0 mm
14:14 13.9 °C 10.3 °C 1010.0 hPa ESE 9.0 km/h 16.7 km/h 79 % 0.0 mm
14:19 13.9 °C 10.5 °C 1010.0 hPa NE 8.7 km/h 14.8 km/h 80 % 0.0 mm
14:24 13.9 °C 10.6 °C 1010.0 hPa East 9.8 km/h 17.7 km/h 80 % 0.0 mm
14:29 13.9 °C 10.2 °C 1010.0 hPa East 11.3 km/h 18.5 km/h 78 % 0.0 mm
14:34 14.0 °C 10.4 °C 1010.0 hPa NE 9.3 km/h 17.7 km/h 79 % 0.0 mm
14:39 14.1 °C 10.3 °C 1010.0 hPa East 9.2 km/h 16.7 km/h 78 % 0.0 mm
14:44 14.1 °C 10.3 °C 1010.4 hPa East 9.3 km/h 14.8 km/h 78 % 0.0 mm
14:49 14.0 °C 10.2 °C 1010.4 hPa East 6.6 km/h 11.1 km/h 78 % 0.0 mm
14:54 14.2 °C 10.4 °C 1010.4 hPa ESE 7.7 km/h 12.9 km/h 78 % 0.0 mm
14:59 14.4 °C 10.2 °C 1010.4 hPa East 6.8 km/h 9.7 km/h 76 % 0.0 mm
15:04 14.4 °C 10.2 °C 1010.4 hPa ENE 7.6 km/h 12.9 km/h 76 % 0.0 mm
15:09 14.3 °C 10.2 °C 1010.4 hPa ESE 4.8 km/h 6.4 km/h 76 % 0.0 mm
15:15 14.6 °C 10.8 °C 1010.4 hPa East 4.5 km/h 8.0 km/h 78 % 0.0 mm
15:20 14.4 °C 10.3 °C 1010.4 hPa ENE 6.1 km/h 11.1 km/h 76 % 0.0 mm
15:25 14.3 °C 10.3 °C 1010.0 hPa ESE 5.0 km/h 11.3 km/h 77 % 0.0 mm
15:30 14.3 °C 10.5 °C 1010.0 hPa ENE 5.3 km/h 8.0 km/h 78 % 0.0 mm
15:35 14.3 °C 10.5 °C 1010.0 hPa ENE 5.5 km/h 8.0 km/h 78 % 0.0 mm
15:40 14.3 °C 10.7 °C 1010.0 hPa East 4.7 km/h 6.4 km/h 79 % 0.0 mm
15:45 14.3 °C 10.6 °C 1010.0 hPa NNE 5.8 km/h 8.0 km/h 78 % 0.0 mm
15:50 14.6 °C 10.9 °C 1010.0 hPa ENE 2.1 km/h 4.8 km/h 79 % 0.0 mm
15:55 14.9 °C 10.6 °C 1010.0 hPa NE 5.1 km/h 8.0 km/h 75 % 0.0 mm
16:00 14.9 °C 10.2 °C 1010.0 hPa NNW 7.4 km/h 16.1 km/h 73 % 0.0 mm
16:05 14.6 °C 9.8 °C 1010.0 hPa North 7.4 km/h 13.0 km/h 73 % 0.0 mm
16:10 14.6 °C 9.8 °C 1010.0 hPa NE 5.6 km/h 8.0 km/h 73 % 0.0 mm
16:15 14.7 °C 9.7 °C 1010.0 hPa ENE 4.0 km/h 8.0 km/h 72 % 0.0 mm
16:21 14.8 °C 10.0 °C 1010.0 hPa NNE 5.8 km/h 11.3 km/h 73 % 0.0 mm
16:26 14.6 °C 9.8 °C 1010.4 hPa NE 3.1 km/h 6.4 km/h 73 % 0.0 mm
16:31 14.5 °C 9.7 °C 1010.0 hPa ENE 3.4 km/h 6.4 km/h 73 % 0.0 mm
16:36 14.5 °C 9.7 °C 1010.0 hPa ENE 7.4 km/h 14.8 km/h 73 % 0.0 mm
16:41 14.5 °C 9.7 °C 1010.0 hPa East 6.4 km/h 13.0 km/h 73 % 0.0 mm
16:46 14.7 °C 10.1 °C 1010.0 hPa North 5.1 km/h 14.8 km/h 74 % 0.0 mm
16:51 14.7 °C 9.9 °C 1010.0 hPa East 3.5 km/h 7.4 km/h 73 % 0.0 mm
16:56 14.7 °C 9.9 °C 1010.0 hPa NE 5.0 km/h 8.0 km/h 73 % 0.0 mm
17:01 14.6 °C 9.8 °C 1010.0 hPa ENE 4.0 km/h 6.4 km/h 73 % 0.0 mm
17:06 14.3 °C 9.8 °C 1010.0 hPa East 4.2 km/h 8.0 km/h 74 % 0.0 mm
17:11 14.3 °C 9.9 °C 1010.0 hPa ENE 4.0 km/h 9.7 km/h 75 % 0.0 mm
17:16 14.3 °C 9.9 °C 1010.0 hPa ENE 6.8 km/h 11.3 km/h 75 % 0.0 mm
17:21 14.2 °C 10.0 °C 1010.0 hPa ENE 6.0 km/h 9.7 km/h 76 % 0.0 mm
17:26 13.9 °C 10.0 °C 1010.0 hPa ENE 4.8 km/h 13.0 km/h 77 % 0.0 mm
17:31 14.1 °C 10.3 °C 1010.0 hPa NNE 4.2 km/h 8.0 km/h 78 % 0.0 mm
17:36 14.2 °C 10.4 °C 1010.0 hPa NNE 4.3 km/h 8.0 km/h 78 % 0.0 mm
17:42 14.2 °C 10.4 °C 1010.0 hPa ESE 3.7 km/h 9.7 km/h 78 % 0.0 mm
17:47 14.0 °C 10.1 °C 1010.0 hPa ENE 6.9 km/h 12.9 km/h 77 % 0.0 mm
17:52 13.9 °C 10.1 °C 1010.0 hPa NE 4.5 km/h 11.1 km/h 78 % 0.0 mm
17:57 13.7 °C 9.9 °C 1010.0 hPa ENE 5.0 km/h 11.3 km/h 78 % 0.0 mm
18:02 13.6 °C 9.7 °C 1010.0 hPa ENE 6.6 km/h 16.7 km/h 77 % 0.0 mm
18:07 13.4 °C 9.7 °C 1010.0 hPa ENE 4.2 km/h 13.0 km/h 78 % 0.0 mm
18:12 13.4 °C 9.8 °C 1010.0 hPa East 4.3 km/h 13.0 km/h 79 % 0.0 mm
18:17 13.4 °C 10.0 °C 1010.0 hPa NE 3.7 km/h 9.3 km/h 80 % 0.0 mm
18:22 13.4 °C 10.0 °C 1010.0 hPa NNE 6.4 km/h 11.3 km/h 80 % 0.0 mm
18:27 13.3 °C 10.2 °C 1010.0 hPa ENE 4.8 km/h 9.7 km/h 81 % 0.0 mm
18:32 13.3 °C 10.1 °C 1010.0 hPa NNE 4.7 km/h 11.1 km/h 81 % 0.0 mm
18:37 13.2 °C 10.0 °C 1010.0 hPa NNE 6.4 km/h 11.1 km/h 81 % 0.0 mm
18:42 13.2 °C 10.0 °C 1010.0 hPa NE 3.5 km/h 8.0 km/h 81 % 0.0 mm
18:47 13.2 °C 10.2 °C 1010.0 hPa NW 4.0 km/h 6.4 km/h 82 % 0.0 mm
18:52 13.1 °C 10.1 °C 1010.0 hPa NE 5.3 km/h 8.0 km/h 82 % 0.0 mm
18:58 12.9 °C 10.1 °C 1010.0 hPa NW 4.7 km/h 8.0 km/h 83 % 0.0 mm
19:03 12.7 °C 10.1 °C 1010.0 hPa NW 5.3 km/h 11.1 km/h 84 % 0.0 mm
19:08 12.5 °C 10.1 °C 1010.0 hPa North 6.1 km/h 9.7 km/h 85 % 0.0 mm
19:13 12.3 °C 9.9 °C 1009.7 hPa NNE 5.1 km/h 9.7 km/h 85 % 0.0 mm
19:18 12.2 °C 9.9 °C 1009.7 hPa North 5.1 km/h 9.7 km/h 86 % 0.0 mm
19:23 12.1 °C 9.8 °C 1010.0 hPa NW 5.3 km/h 8.0 km/h 86 % 0.0 mm
19:28 11.9 °C 9.8 °C 1010.0 hPa North 5.1 km/h 9.7 km/h 87 % 0.0 mm
19:33 11.8 °C 9.7 °C 1010.0 hPa SE 6.1 km/h 14.5 km/h 87 % 0.0 mm
19:38 11.7 °C 9.7 °C 1010.0 hPa NW 4.8 km/h 11.3 km/h 88 % 0.0 mm
Renvyle Weather
Compliments of Weather Underground - 2.5 mb

Script developed by  Jim McMurry - jmcmurry@mwt.net Adapted for the template by  Wim van der Kuil - Leuven-Template.eu

You find our weather info also at:

UK Metoffice

Weather Underground

Equipment we use:

Weather-station
Davis Vantage Vue

Weather-program
Weather Display

Weather-server
Dell 3050 Micro Desktop

Provider
RS Hosting

Davis Vantage Vue

Weather Display

Dell 3050 Micro Desktop

RS Hosting